YM Venus — 9HCB8 — position and weather

sailwx.info

Track history (hours):
 
Tides and Currents Weather Stations Pressure Air Temp Water Temp Dewpoint Dewpoint Depression Visibility Wind Speed Wind Dir Waves Ship Positions

YM Venus

Last reported at 2016-Feb-05 21:33 UTC. Time now 2016-Feb-05 22:21 UTC.
Position N 36°42' W 009°14'.

Length 105 m; draft 7 m.

Type: Tanker. MMSI: 215826000.

Date/timePositionNaut miles runAvg speedWind from/ knotsBaromVisibWave heightAir tempDewpointWater temp
2016-Feb-05 21:33N 36°42' W 009°14'1111.4
2016-Feb-05 20:33N 36°38' W 009°01'1211.5
2016-Feb-05 19:33N 36°36' W 008°47'1211.5
2016-Feb-05 18:33N 36°34' W 008°33'1211.8
2016-Feb-05 17:33N 36°32' W 008°19'13711.4
2016-Feb-05 05:34N 35°58' W 005°34'8 8.3
2016-Feb-05 04:33N 36°00' W 005°24'9 9.1
2016-Feb-05 03:33N 36°02' W 005°13'  
2016-Feb-01 19:14N 36°40' E 013°26'1010.4
2016-Feb-01 18:18N 36°37' E 013°37'710.0
2016-Feb-01 17:33N 36°34' E 013°46'1010.2
2016-Feb-01 16:34N 36°31' E 013°58'1110.2
2016-Feb-01 15:32N 36°28' E 014°11'1010.5
2016-Feb-01 14:33N 36°25' E 014°23'1110.6
2016-Feb-01 13:33N 36°22' E 014°35'  
2016-Jan-27 05:29N 32°53' E 034°53'  
Track history (hours):
 
Tides and Currents Weather Stations Pressure Air Temp Water Temp Dewpoint Dewpoint Depression Visibility Wind Speed Wind Dir Waves Ship Positions

YM Venus

Last reported at 2016-Feb-05 21:33 UTC. Time now 2016-Feb-05 22:21 UTC.
Position N 36°42' W 009°14'.

Length 105 m; draft 7 m.

Type: Tanker. MMSI: 215826000.

Date/timePositionNaut miles runAvg speedWind from/ knotsBaromVisibWave heightAir tempDewpointWater temp
2016-Feb-05 21:33N 36°42' W 009°14'1111.4
2016-Feb-05 20:33N 36°38' W 009°01'1211.5
2016-Feb-05 19:33N 36°36' W 008°47'1211.5
2016-Feb-05 18:33N 36°34' W 008°33'1211.8
2016-Feb-05 17:33N 36°32' W 008°19'13711.4
2016-Feb-05 05:34N 35°58' W 005°34'8 8.3
2016-Feb-05 04:33N 36°00' W 005°24'9 9.1
2016-Feb-05 03:33N 36°02' W 005°13'  
2016-Feb-01 19:14N 36°40' E 013°26'1010.4
2016-Feb-01 18:18N 36°37' E 013°37'710.0
2016-Feb-01 17:33N 36°34' E 013°46'1010.2
2016-Feb-01 16:34N 36°31' E 013°58'1110.2
2016-Feb-01 15:32N 36°28' E 014°11'1010.5
2016-Feb-01 14:33N 36°25' E 014°23'1110.6
2016-Feb-01 13:33N 36°22' E 014°35'  
2016-Jan-27 05:29N 32°53' E 034°53'  

Dump ship's entire track history